sensor_id;sensor_type;location;lat;lon;timestamp;temperature;humidity
11045;DHT22;9786;42.714;23.272;2024-03-23T00:55:52;4.60;69.10
11045;DHT22;9786;42.714;23.272;2024-03-23T00:58:20;4.60;68.40
11045;DHT22;9786;42.714;23.272;2024-03-23T01:00:48;4.60;69.10
11045;DHT22;9786;42.714;23.272;2024-03-23T01:03:16;4.60;69.80
11045;DHT22;9786;42.714;23.272;2024-03-23T01:05:44;4.60;69.70
11045;DHT22;9786;42.714;23.272;2024-03-23T01:08:13;4.50;68.90
11045;DHT22;9786;42.714;23.272;2024-03-23T01:10:43;4.50;69.50
11045;DHT22;9786;42.714;23.272;2024-03-23T01:13:19;4.50;69.40
11045;DHT22;9786;42.714;23.272;2024-03-23T01:15:49;4.50;69.70
11045;DHT22;9786;42.714;23.272;2024-03-23T01:18:16;4.50;70.30
11045;DHT22;9786;42.714;23.272;2024-03-23T01:20:44;4.50;70.10
11045;DHT22;9786;42.714;23.272;2024-03-23T01:23:12;4.40;69.30
11045;DHT22;9786;42.714;23.272;2024-03-23T01:25:40;4.40;70.00
11045;DHT22;9786;42.714;23.272;2024-03-23T01:28:08;4.40;70.30
11045;DHT22;9786;42.714;23.272;2024-03-23T01:30:37;4.40;70.40
11045;DHT22;9786;42.714;23.272;2024-03-23T01:33:04;4.30;70.60
11045;DHT22;9786;42.714;23.272;2024-03-23T01:35:32;4.20;71.00
11045;DHT22;9786;42.714;23.272;2024-03-23T01:37:59;4.20;70.80
11045;DHT22;9786;42.714;23.272;2024-03-23T01:40:28;4.30;71.00
11045;DHT22;9786;42.714;23.272;2024-03-23T01:43:02;4.40;71.00
11045;DHT22;9786;42.714;23.272;2024-03-23T01:45:33;4.40;71.60
11045;DHT22;9786;42.714;23.272;2024-03-23T01:48:00;4.30;69.90
11045;DHT22;9786;42.714;23.272;2024-03-23T01:50:30;4.30;70.10
11045;DHT22;9786;42.714;23.272;2024-03-23T01:53:01;4.30;70.10
11045;DHT22;9786;42.714;23.272;2024-03-23T01:55:32;4.30;70.40
11045;DHT22;9786;42.714;23.272;2024-03-23T01:57:59;4.40;70.80
11045;DHT22;9786;42.714;23.272;2024-03-23T02:00:28;4.30;70.00
11045;DHT22;9786;42.714;23.272;2024-03-23T02:02:57;4.30;69.90
11045;DHT22;9786;42.714;23.272;2024-03-23T02:05:29;4.30;70.10
11045;DHT22;9786;42.714;23.272;2024-03-23T02:07:57;4.20;70.40
11045;DHT22;9786;42.714;23.272;2024-03-23T02:10:26;4.20;70.80
11045;DHT22;9786;42.714;23.272;2024-03-23T02:12:56;4.20;70.80
11045;DHT22;9786;42.714;23.272;2024-03-23T02:15:24;4.10;70.30
11045;DHT22;9786;42.714;23.272;2024-03-23T02:17:52;4.10;70.60
11045;DHT22;9786;42.714;23.272;2024-03-23T02:20:22;4.10;71.20
11045;DHT22;9786;42.714;23.272;2024-03-23T02:22:52;4.00;71.30
11045;DHT22;9786;42.714;23.272;2024-03-23T02:25:21;4.00;70.90
11045;DHT22;9786;42.714;23.272;2024-03-23T02:27:48;4.00;71.90
11045;DHT22;9786;42.714;23.272;2024-03-23T02:30:17;4.00;71.60
11045;DHT22;9786;42.714;23.272;2024-03-23T02:32:49;4.00;71.00
11045;DHT22;9786;42.714;23.272;2024-03-23T02:35:17;4.00;71.00
11045;DHT22;9786;42.714;23.272;2024-03-23T02:37:46;4.00;71.20
11045;DHT22;9786;42.714;23.272;2024-03-23T02:40:17;4.00;70.90
11045;DHT22;9786;42.714;23.272;2024-03-23T02:42:44;3.90;71.10
11045;DHT22;9786;42.714;23.272;2024-03-23T02:45:13;3.80;70.80
11045;DHT22;9786;42.714;23.272;2024-03-23T02:47:40;3.80;71.00
11045;DHT22;9786;42.714;23.272;2024-03-23T02:50:12;3.80;71.20
11045;DHT22;9786;42.714;23.272;2024-03-23T02:52:41;3.80;71.50
11045;DHT22;9786;42.714;23.272;2024-03-23T02:55:11;3.80;71.00
11045;DHT22;9786;42.714;23.272;2024-03-23T02:57:39;3.70;71.00
11045;DHT22;9786;42.714;23.272;2024-03-23T03:00:08;3.70;70.70
11045;DHT22;9786;42.714;23.272;2024-03-23T03:02:36;3.60;70.70
11045;DHT22;9786;42.714;23.272;2024-03-23T03:05:05;3.60;70.90
11045;DHT22;9786;42.714;23.272;2024-03-23T03:07:32;3.50;71.00
11045;DHT22;9786;42.714;23.272;2024-03-23T03:10:00;3.50;71.40
11045;DHT22;9786;42.714;23.272;2024-03-23T03:12:28;3.50;71.60
11045;DHT22;9786;42.714;23.272;2024-03-23T03:14:57;3.40;71.60
11045;DHT22;9786;42.714;23.272;2024-03-23T03:17:25;3.30;71.60
11045;DHT22;9786;42.714;23.272;2024-03-23T03:19:53;3.30;72.10
11045;DHT22;9786;42.714;23.272;2024-03-23T03:22:22;3.30;72.40
11045;DHT22;9786;42.714;23.272;2024-03-23T03:24:52;3.40;72.60
11045;DHT22;9786;42.714;23.272;2024-03-23T03:27:19;3.40;72.30
11045;DHT22;9786;42.714;23.272;2024-03-23T03:29:49;3.40;72.50
11045;DHT22;9786;42.714;23.272;2024-03-23T03:32:20;3.40;72.40
11045;DHT22;9786;42.714;23.272;2024-03-23T03:34:48;3.30;72.70
11045;DHT22;9786;42.714;23.272;2024-03-23T03:37:17;3.30;72.40
11045;DHT22;9786;42.714;23.272;2024-03-23T03:39:45;3.30;72.40
11045;DHT22;9786;42.714;23.272;2024-03-23T03:42:13;3.30;72.70
11045;DHT22;9786;42.714;23.272;2024-03-23T03:44:42;3.20;72.90
11045;DHT22;9786;42.714;23.272;2024-03-23T03:47:10;3.20;73.00
11045;DHT22;9786;42.714;23.272;2024-03-23T03:49:41;3.20;73.10
11045;DHT22;9786;42.714;23.272;2024-03-23T03:52:08;3.20;73.00
11045;DHT22;9786;42.714;23.272;2024-03-23T03:54:36;3.20;73.30
11045;DHT22;9786;42.714;23.272;2024-03-23T03:57:04;3.10;73.40
11045;DHT22;9786;42.714;23.272;2024-03-23T03:59:32;3.10;73.30
11045;DHT22;9786;42.714;23.272;2024-03-23T04:02:01;3.10;73.50
11045;DHT22;9786;42.714;23.272;2024-03-23T04:04:30;3.10;73.30
11045;DHT22;9786;42.714;23.272;2024-03-23T04:07:04;3.10;73.70
11045;DHT22;9786;42.714;23.272;2024-03-23T04:09:33;3.10;73.80
11045;DHT22;9786;42.714;23.272;2024-03-23T04:12:00;3.10;73.80
11045;DHT22;9786;42.714;23.272;2024-03-23T04:14:29;3.10;74.20
11045;DHT22;9786;42.714;23.272;2024-03-23T04:16:57;3.10;74.10
11045;DHT22;9786;42.714;23.272;2024-03-23T04:19:27;3.10;74.20
11045;DHT22;9786;42.714;23.272;2024-03-23T04:21:54;3.10;73.40
11045;DHT22;9786;42.714;23.272;2024-03-23T04:24:24;3.10;73.60
11045;DHT22;9786;42.714;23.272;2024-03-23T04:26:53;3.10;74.20
11045;DHT22;9786;42.714;23.272;2024-03-23T04:29:24;3.10;74.20
11045;DHT22;9786;42.714;23.272;2024-03-23T04:31:53;3.10;74.40
11045;DHT22;9786;42.714;23.272;2024-03-23T04:34:25;3.10;74.40
11045;DHT22;9786;42.714;23.272;2024-03-23T04:36:55;3.10;74.20
11045;DHT22;9786;42.714;23.272;2024-03-23T04:39:27;3.00;73.90
11045;DHT22;9786;42.714;23.272;2024-03-23T04:41:55;3.00;74.00
11045;DHT22;9786;42.714;23.272;2024-03-23T04:44:24;3.00;74.60
11045;DHT22;9786;42.714;23.272;2024-03-23T04:46:52;3.00;74.80
11045;DHT22;9786;42.714;23.272;2024-03-23T04:49:21;3.10;74.90
11045;DHT22;9786;42.714;23.272;2024-03-23T04:51:49;3.10;74.70
11045;DHT22;9786;42.714;23.272;2024-03-23T04:54:18;3.10;74.50
11045;DHT22;9786;42.714;23.272;2024-03-23T04:56:50;3.10;74.40
11045;DHT22;9786;42.714;23.272;2024-03-23T04:59:19;3.10;74.70
11045;DHT22;9786;42.714;23.272;2024-03-23T05:01:47;3.10;74.30
11045;DHT22;9786;42.714;23.272;2024-03-23T05:04:18;3.00;74.50
11045;DHT22;9786;42.714;23.272;2024-03-23T05:06:45;3.00;74.50
11045;DHT22;9786;42.714;23.272;2024-03-23T05:09:14;3.00;74.80
11045;DHT22;9786;42.714;23.272;2024-03-23T05:11:44;3.10;75.00
11045;DHT22;9786;42.714;23.272;2024-03-23T05:14:16;3.10;74.70
11045;DHT22;9786;42.714;23.272;2024-03-23T05:16:43;3.20;74.40
11045;DHT22;9786;42.714;23.272;2024-03-23T05:19:12;3.30;74.20
11045;DHT22;9786;42.714;23.272;2024-03-23T05:21:48;3.60;74.40
11045;DHT22;9786;42.714;23.272;2024-03-23T05:24:17;4.10;74.00
11045;DHT22;9786;42.714;23.272;2024-03-23T05:26:54;4.70;72.60
11045;DHT22;9786;42.714;23.272;2024-03-23T05:29:22;5.20;71.00
11045;DHT22;9786;42.714;23.272;2024-03-23T05:31:53;5.70;69.20
11045;DHT22;9786;42.714;23.272;2024-03-23T05:34:23;6.00;67.60
11045;DHT22;9786;42.714;23.272;2024-03-23T05:36:53;6.50;65.90
11045;DHT22;9786;42.714;23.272;2024-03-23T05:39:21;6.90;64.20
11045;DHT22;9786;42.714;23.272;2024-03-23T05:41:50;6.90;63.30
11045;DHT22;9786;42.714;23.272;2024-03-23T05:44:18;7.10;63.80
11045;DHT22;9786;42.714;23.272;2024-03-23T05:46:48;7.50;62.30
11045;DHT22;9786;42.714;23.272;2024-03-23T05:49:16;7.90;61.20
11045;DHT22;9786;42.714;23.272;2024-03-23T05:51:45;8.20;60.20
11045;DHT22;9786;42.714;23.272;2024-03-23T05:54:17;8.00;59.40
11045;DHT22;9786;42.714;23.272;2024-03-23T05:56:46;8.10;60.80
11045;DHT22;9786;42.714;23.272;2024-03-23T05:59:13;8.60;59.00
11045;DHT22;9786;42.714;23.272;2024-03-23T06:01:41;7.90;58.90
11045;DHT22;9786;42.714;23.272;2024-03-23T06:04:10;7.60;61.20
11045;DHT22;9786;42.714;23.272;2024-03-23T06:06:40;7.70;60.00
11045;DHT22;9786;42.714;23.272;2024-03-23T06:09:08;8.00;60.70
11045;DHT22;9786;42.714;23.272;2024-03-23T06:11:36;9.60;58.00
11045;DHT22;9786;42.714;23.272;2024-03-23T06:14:03;9.20;57.20
11045;DHT22;9786;42.714;23.272;2024-03-23T06:16:33;8.70;57.10
11045;DHT22;9786;42.714;23.272;2024-03-23T06:19:00;8.60;57.40
11045;DHT22;9786;42.714;23.272;2024-03-23T06:21:59;8.70;56.10
11045;DHT22;9786;42.714;23.272;2024-03-23T06:24:31;8.40;57.20
11045;DHT22;9786;42.714;23.272;2024-03-23T06:27:01;9.10;56.20
11045;DHT22;9786;42.714;23.272;2024-03-23T06:29:31;9.50;56.40
11045;DHT22;9786;42.714;23.272;2024-03-23T06:32:21;9.20;55.60
11045;DHT22;9786;42.714;23.272;2024-03-23T06:34:49;9.50;54.60
11045;DHT22;9786;42.714;23.272;2024-03-23T06:37:17;10.30;54.80
11045;DHT22;9786;42.714;23.272;2024-03-23T06:39:48;11.50;52.90
11045;DHT22;9786;42.714;23.272;2024-03-23T06:42:16;12.20;50.20
11045;DHT22;9786;42.714;23.272;2024-03-23T06:44:44;11.40;49.60
11045;DHT22;9786;42.714;23.272;2024-03-23T06:47:13;11.20;51.40
11045;DHT22;9786;42.714;23.272;2024-03-23T06:49:43;10.30;50.60
11045;DHT22;9786;42.714;23.272;2024-03-23T06:52:10;11.90;51.60
11045;DHT22;9786;42.714;23.272;2024-03-23T06:54:41;12.90;48.50
11045;DHT22;9786;42.714;23.272;2024-03-23T06:57:11;11.50;48.20
11045;DHT22;9786;42.714;23.272;2024-03-23T06:59:39;11.40;49.50
11045;DHT22;9786;42.714;23.272;2024-03-23T07:02:08;11.20;50.10
11045;DHT22;9786;42.714;23.272;2024-03-23T07:04:35;11.60;50.80
11045;DHT22;9786;42.714;23.272;2024-03-23T07:07:04;13.00;49.00
11045;DHT22;9786;42.714;23.272;2024-03-23T07:09:31;13.20;46.70
11045;DHT22;9786;42.714;23.272;2024-03-23T07:12:00;12.60;46.00
11045;DHT22;9786;42.714;23.272;2024-03-23T07:14:27;12.60;46.30
11045;DHT22;9786;42.714;23.272;2024-03-23T07:16:56;13.80;46.90
11045;DHT22;9786;42.714;23.272;2024-03-23T07:19:24;14.70;42.90
11045;DHT22;9786;42.714;23.272;2024-03-23T07:21:52;15.00;42.90
11045;DHT22;9786;42.714;23.272;2024-03-23T07:24:23;16.00;41.10
11045;DHT22;9786;42.714;23.272;2024-03-23T07:26:54;14.60;40.40
11045;DHT22;9786;42.714;23.272;2024-03-23T07:29:35;13.70;43.50
11045;DHT22;9786;42.714;23.272;2024-03-23T07:32:09;12.80;46.00
11045;DHT22;9786;42.714;23.272;2024-03-23T07:34:38;13.00;45.80
11045;DHT22;9786;42.714;23.272;2024-03-23T07:37:06;14.00;45.60
11045;DHT22;9786;42.714;23.272;2024-03-23T07:39:33;14.50;43.50
11045;DHT22;9786;42.714;23.272;2024-03-23T07:42:02;15.30;43.70
11045;DHT22;9786;42.714;23.272;2024-03-23T07:44:29;16.00;42.10
11045;DHT22;9786;42.714;23.272;2024-03-23T07:50:13;14.20;42.10
11045;DHT22;9786;42.714;23.272;2024-03-23T07:52:42;14.20;43.90
11045;DHT22;9786;42.714;23.272;2024-03-23T07:55:09;14.20;42.90
11045;DHT22;9786;42.714;23.272;2024-03-23T07:57:38;14.00;44.10
11045;DHT22;9786;42.714;23.272;2024-03-23T08:00:13;13.50;44.20
11045;DHT22;9786;42.714;23.272;2024-03-23T08:02:44;14.10;44.90
11045;DHT22;9786;42.714;23.272;2024-03-23T08:05:13;14.60;44.10
11045;DHT22;9786;42.714;23.272;2024-03-23T08:07:44;14.70;44.00
11045;DHT22;9786;42.714;23.272;2024-03-23T08:10:14;14.20;43.80
11045;DHT22;9786;42.714;23.272;2024-03-23T08:12:54;13.80;44.70
11045;DHT22;9786;42.714;23.272;2024-03-23T08:15:22;13.80;44.90
11045;DHT22;9786;42.714;23.272;2024-03-23T08:17:51;14.30;44.90
11045;DHT22;9786;42.714;23.272;2024-03-23T08:20:18;14.20;45.00
11045;DHT22;9786;42.714;23.272;2024-03-23T08:22:47;14.70;43.20
11045;DHT22;9786;42.714;23.272;2024-03-23T08:25:17;15.20;42.20
11045;DHT22;9786;42.714;23.272;2024-03-23T08:27:46;14.90;42.70
11045;DHT22;9786;42.714;23.272;2024-03-23T08:30:15;15.30;42.10
11045;DHT22;9786;42.714;23.272;2024-03-23T08:32:45;15.20;42.80
11045;DHT22;9786;42.714;23.272;2024-03-23T08:35:15;15.40;43.90
11045;DHT22;9786;42.714;23.272;2024-03-23T08:37:44;15.50;42.20
11045;DHT22;9786;42.714;23.272;2024-03-23T08:40:11;15.60;41.00
11045;DHT22;9786;42.714;23.272;2024-03-23T08:42:41;15.30;42.10
11045;DHT22;9786;42.714;23.272;2024-03-23T08:45:09;15.20;43.30
11045;DHT22;9786;42.714;23.272;2024-03-23T08:47:37;15.10;42.70
11045;DHT22;9786;42.714;23.272;2024-03-23T08:50:05;15.50;42.20
11045;DHT22;9786;42.714;23.272;2024-03-23T08:52:35;15.90;40.70
11045;DHT22;9786;42.714;23.272;2024-03-23T08:55:02;16.50;40.40
11045;DHT22;9786;42.714;23.272;2024-03-23T08:57:34;16.40;41.00
11045;DHT22;9786;42.714;23.272;2024-03-23T09:00:01;16.20;40.70
11045;DHT22;9786;42.714;23.272;2024-03-23T09:02:30;16.20;40.70
11045;DHT22;9786;42.714;23.272;2024-03-23T09:04:57;16.00;40.30
11045;DHT22;9786;42.714;23.272;2024-03-23T09:07:30;16.60;41.90
11045;DHT22;9786;42.714;23.272;2024-03-23T09:09:59;16.70;40.00
11045;DHT22;9786;42.714;23.272;2024-03-23T09:12:28;17.60;38.70
11045;DHT22;9786;42.714;23.272;2024-03-23T09:14:56;17.30;39.90
11045;DHT22;9786;42.714;23.272;2024-03-23T09:17:25;17.00;38.00
11045;DHT22;9786;42.714;23.272;2024-03-23T09:19:53;17.30;38.50
11045;DHT22;9786;42.714;23.272;2024-03-23T09:22:23;17.00;39.30
11045;DHT22;9786;42.714;23.272;2024-03-23T09:24:52;17.70;40.30
11045;DHT22;9786;42.714;23.272;2024-03-23T09:27:22;17.70;38.20
11045;DHT22;9786;42.714;23.272;2024-03-23T09:29:49;17.80;37.40
11045;DHT22;9786;42.714;23.272;2024-03-23T09:32:18;17.30;39.50
11045;DHT22;9786;42.714;23.272;2024-03-23T09:34:46;17.40;38.20
11045;DHT22;9786;42.714;23.272;2024-03-23T09:37:15;17.60;37.10
11045;DHT22;9786;42.714;23.272;2024-03-23T09:39:44;17.80;37.70
11045;DHT22;9786;42.714;23.272;2024-03-23T09:42:12;18.20;36.20
11045;DHT22;9786;42.714;23.272;2024-03-23T09:44:43;19.00;37.30
11045;DHT22;9786;42.714;23.272;2024-03-23T09:47:12;18.50;35.60
11045;DHT22;9786;42.714;23.272;2024-03-23T09:49:40;19.20;35.00
11045;DHT22;9786;42.714;23.272;2024-03-23T09:52:09;19.00;35.80
11045;DHT22;9786;42.714;23.272;2024-03-23T09:54:37;19.00;36.90
11045;DHT22;9786;42.714;23.272;2024-03-23T09:57:05;19.30;36.50
11045;DHT22;9786;42.714;23.272;2024-03-23T09:59:34;20.10;35.70
11045;DHT22;9786;42.714;23.272;2024-03-23T10:02:07;19.90;34.10
11045;DHT22;9786;42.714;23.272;2024-03-23T10:04:38;19.90;35.20
11045;DHT22;9786;42.714;23.272;2024-03-23T10:07:11;19.70;34.00
11045;DHT22;9786;42.714;23.272;2024-03-23T10:09:40;19.60;34.70
11045;DHT22;9786;42.714;23.272;2024-03-23T10:12:10;18.80;34.30
11045;DHT22;9786;42.714;23.272;2024-03-23T10:14:39;18.40;35.10
11045;DHT22;9786;42.714;23.272;2024-03-23T10:17:14;18.90;35.70
11045;DHT22;9786;42.714;23.272;2024-03-23T10:19:47;18.50;34.70
11045;DHT22;9786;42.714;23.272;2024-03-23T10:22:18;18.60;35.70
11045;DHT22;9786;42.714;23.272;2024-03-23T10:24:46;19.30;36.20
11045;DHT22;9786;42.714;23.272;2024-03-23T10:27:19;20.10;35.50
11045;DHT22;9786;42.714;23.272;2024-03-23T10:29:47;20.10;34.00
11045;DHT22;9786;42.714;23.272;2024-03-23T10:32:20;19.70;32.70
11045;DHT22;9786;42.714;23.272;2024-03-23T10:34:48;19.00;32.60
11045;DHT22;9786;42.714;23.272;2024-03-23T10:37:17;19.00;33.50
11045;DHT22;9786;42.714;23.272;2024-03-23T10:39:44;19.50;35.70
11045;DHT22;9786;42.714;23.272;2024-03-23T10:42:13;20.20;33.30
11045;DHT22;9786;42.714;23.272;2024-03-23T10:44:41;20.90;33.10
11045;DHT22;9786;42.714;23.272;2024-03-23T10:47:09;21.10;32.30
11045;DHT22;9786;42.714;23.272;2024-03-23T10:49:38;21.40;30.00
11045;DHT22;9786;42.714;23.272;2024-03-23T10:52:06;21.30;32.10
11045;DHT22;9786;42.714;23.272;2024-03-23T10:54:33;21.10;30.80
11045;DHT22;9786;42.714;23.272;2024-03-23T10:57:06;21.20;32.50
11045;DHT22;9786;42.714;23.272;2024-03-23T10:59:35;20.40;31.40
11045;DHT22;9786;42.714;23.272;2024-03-23T11:02:05;21.00;31.20
11045;DHT22;9786;42.714;23.272;2024-03-23T11:04:39;20.10;29.90
11045;DHT22;9786;42.714;23.272;2024-03-23T11:07:30;19.90;31.60
11045;DHT22;9786;42.714;23.272;2024-03-23T11:09:58;20.20;30.20
11045;DHT22;9786;42.714;23.272;2024-03-23T11:12:28;20.50;31.80
11045;DHT22;9786;42.714;23.272;2024-03-23T11:15:01;19.80;30.80
11045;DHT22;9786;42.714;23.272;2024-03-23T11:17:32;19.70;30.70
11045;DHT22;9786;42.714;23.272;2024-03-23T11:20:02;19.80;30.40
11045;DHT22;9786;42.714;23.272;2024-03-23T11:22:41;18.90;31.50
11045;DHT22;9786;42.714;23.272;2024-03-23T11:25:15;18.60;33.00
11045;DHT22;9786;42.714;23.272;2024-03-23T11:27:45;18.10;33.20
11045;DHT22;9786;42.714;23.272;2024-03-23T11:30:15;18.10;32.90
11045;DHT22;9786;42.714;23.272;2024-03-23T11:32:45;18.60;33.20
11045;DHT22;9786;42.714;23.272;2024-03-23T11:35:29;19.00;33.30
11045;DHT22;9786;42.714;23.272;2024-03-23T11:38:05;19.80;33.50
11045;DHT22;9786;42.714;23.272;2024-03-23T11:40:35;20.50;32.60
11045;DHT22;9786;42.714;23.272;2024-03-23T11:43:04;20.90;32.40
11045;DHT22;9786;42.714;23.272;2024-03-23T11:45:36;21.70;30.40
11045;DHT22;9786;42.714;23.272;2024-03-23T11:48:06;21.70;29.40
11045;DHT22;9786;42.714;23.272;2024-03-23T11:50:37;21.40;28.20
11045;DHT22;9786;42.714;23.272;2024-03-23T11:53:16;21.30;30.40
11045;DHT22;9786;42.714;23.272;2024-03-23T11:55:48;21.30;29.80
11045;DHT22;9786;42.714;23.272;2024-03-23T11:58:18;21.70;29.30
11045;DHT22;9786;42.714;23.272;2024-03-23T12:00:52;21.90;29.50
11045;DHT22;9786;42.714;23.272;2024-03-23T12:03:21;21.60;28.40
11045;DHT22;9786;42.714;23.272;2024-03-23T12:05:55;21.50;28.50
11045;DHT22;9786;42.714;23.272;2024-03-23T12:08:24;20.70;30.50
11045;DHT22;9786;42.714;23.272;2024-03-23T12:10:52;20.40;28.80
11045;DHT22;9786;42.714;23.272;2024-03-23T12:13:23;19.80;30.60
11045;DHT22;9786;42.714;23.272;2024-03-23T12:15:51;19.30;30.00
11045;DHT22;9786;42.714;23.272;2024-03-23T12:18:25;18.90;30.00
11045;DHT22;9786;42.714;23.272;2024-03-23T12:20:53;18.70;29.90
11045;DHT22;9786;42.714;23.272;2024-03-23T12:23:21;18.50;30.90
11045;DHT22;9786;42.714;23.272;2024-03-23T12:25:49;18.30;31.60
11045;DHT22;9786;42.714;23.272;2024-03-23T12:28:17;18.50;30.30
11045;DHT22;9786;42.714;23.272;2024-03-23T12:30:45;18.80;30.00
11045;DHT22;9786;42.714;23.272;2024-03-23T12:33:13;19.20;30.90
11045;DHT22;9786;42.714;23.272;2024-03-23T12:35:41;19.50;29.30
11045;DHT22;9786;42.714;23.272;2024-03-23T12:38:12;19.40;26.70
11045;DHT22;9786;42.714;23.272;2024-03-23T12:40:39;19.30;26.00
11045;DHT22;9786;42.714;23.272;2024-03-23T12:43:09;19.10;27.80
11045;DHT22;9786;42.714;23.272;2024-03-23T12:45:36;18.80;26.20
11045;DHT22;9786;42.714;23.272;2024-03-23T12:48:05;18.60;26.80
11045;DHT22;9786;42.714;23.272;2024-03-23T12:50:31;18.90;28.60
11045;DHT22;9786;42.714;23.272;2024-03-23T12:53:00;18.80;28.70
11045;DHT22;9786;42.714;23.272;2024-03-23T12:55:28;19.10;28.20
11045;DHT22;9786;42.714;23.272;2024-03-23T12:57:56;19.40;28.00
11045;DHT22;9786;42.714;23.272;2024-03-23T13:00:23;19.40;26.70
11045;DHT22;9786;42.714;23.272;2024-03-23T13:02:52;19.30;25.90
11045;DHT22;9786;42.714;23.272;2024-03-23T13:05:19;19.20;25.50
11045;DHT22;9786;42.714;23.272;2024-03-23T13:07:50;19.10;25.10
11045;DHT22;9786;42.714;23.272;2024-03-23T13:10:17;19.10;25.20
11045;DHT22;9786;42.714;23.272;2024-03-23T13:12:49;19.10;25.30
11045;DHT22;9786;42.714;23.272;2024-03-23T13:15:16;19.10;26.50
11045;DHT22;9786;42.714;23.272;2024-03-23T13:17:46;18.80;25.00
11045;DHT22;9786;42.714;23.272;2024-03-23T13:20:13;18.80;25.90
11045;DHT22;9786;42.714;23.272;2024-03-23T13:22:42;18.70;26.50
11045;DHT22;9786;42.714;23.272;2024-03-23T13:25:09;18.70;27.20
11045;DHT22;9786;42.714;23.272;2024-03-23T13:27:36;18.90;27.60
11045;DHT22;9786;42.714;23.272;2024-03-23T13:30:07;18.80;27.50
11045;DHT22;9786;42.714;23.272;2024-03-23T13:32:35;18.80;26.80
11045;DHT22;9786;42.714;23.272;2024-03-23T13:35:02;18.60;27.40
11045;DHT22;9786;42.714;23.272;2024-03-23T13:37:32;18.00;26.70
11045;DHT22;9786;42.714;23.272;2024-03-23T13:40:00;18.30;26.60
11045;DHT22;9786;42.714;23.272;2024-03-23T13:42:29;18.40;26.30
11045;DHT22;9786;42.714;23.272;2024-03-23T13:44:56;18.60;26.00
11045;DHT22;9786;42.714;23.272;2024-03-23T13:47:26;18.40;26.90
11045;DHT22;9786;42.714;23.272;2024-03-23T13:49:54;18.40;25.90
11045;DHT22;9786;42.714;23.272;2024-03-23T13:52:23;18.50;27.90
11045;DHT22;9786;42.714;23.272;2024-03-23T13:54:52;18.40;26.90
11045;DHT22;9786;42.714;23.272;2024-03-23T13:57:20;18.50;27.50
11045;DHT22;9786;42.714;23.272;2024-03-23T13:59:48;18.50;27.20
11045;DHT22;9786;42.714;23.272;2024-03-23T14:02:17;18.70;27.20
11045;DHT22;9786;42.714;23.272;2024-03-23T14:04:48;18.70;28.30
11045;DHT22;9786;42.714;23.272;2024-03-23T14:07:15;18.70;28.20
11045;DHT22;9786;42.714;23.272;2024-03-23T14:09:46;18.70;27.30
11045;DHT22;9786;42.714;23.272;2024-03-23T14:12:14;18.80;26.80
11045;DHT22;9786;42.714;23.272;2024-03-23T14:14:41;18.40;26.50
11045;DHT22;9786;42.714;23.272;2024-03-23T14:17:10;18.50;26.90
11045;DHT22;9786;42.714;23.272;2024-03-23T14:19:41;18.40;27.20
11045;DHT22;9786;42.714;23.272;2024-03-23T14:22:10;18.40;27.80
11045;DHT22;9786;42.714;23.272;2024-03-23T14:24:37;18.40;27.90
11045;DHT22;9786;42.714;23.272;2024-03-23T14:27:06;18.40;27.80
11045;DHT22;9786;42.714;23.272;2024-03-23T14:29:33;18.50;28.00
11045;DHT22;9786;42.714;23.272;2024-03-23T14:32:02;18.50;28.00
11045;DHT22;9786;42.714;23.272;2024-03-23T14:34:29;18.40;27.70
11045;DHT22;9786;42.714;23.272;2024-03-23T14:37:09;18.50;27.80
11045;DHT22;9786;42.714;23.272;2024-03-23T14:39:37;18.50;28.10
11045;DHT22;9786;42.714;23.272;2024-03-23T14:42:09;18.40;28.60
11045;DHT22;9786;42.714;23.272;2024-03-23T14:44:46;18.40;28.50
11045;DHT22;9786;42.714;23.272;2024-03-23T14:47:14;18.50;29.00
11045;DHT22;9786;42.714;23.272;2024-03-23T14:49:41;18.50;29.20
11045;DHT22;9786;42.714;23.272;2024-03-23T14:52:12;18.50;29.00
11045;DHT22;9786;42.714;23.272;2024-03-23T14:54:41;18.50;29.10
11045;DHT22;9786;42.714;23.272;2024-03-23T14:57:11;18.50;28.50
11045;DHT22;9786;42.714;23.272;2024-03-23T14:59:39;18.40;28.90
11045;DHT22;9786;42.714;23.272;2024-03-23T15:02:08;18.60;28.90
11045;DHT22;9786;42.714;23.272;2024-03-23T15:04:39;18.60;28.80
11045;DHT22;9786;42.714;23.272;2024-03-23T15:07:13;18.50;28.70
11045;DHT22;9786;42.714;23.272;2024-03-23T15:09:41;18.10;28.20
11045;DHT22;9786;42.714;23.272;2024-03-23T15:12:10;18.00;28.60
11045;DHT22;9786;42.714;23.272;2024-03-23T15:14:38;17.80;28.70
11045;DHT22;9786;42.714;23.272;2024-03-23T15:17:07;18.00;29.30
11045;DHT22;9786;42.714;23.272;2024-03-23T15:19:35;18.10;28.60
11045;DHT22;9786;42.714;23.272;2024-03-23T15:22:04;18.00;28.70
11045;DHT22;9786;42.714;23.272;2024-03-23T15:24:32;18.00;28.60
11045;DHT22;9786;42.714;23.272;2024-03-23T15:27:03;18.10;28.80
11045;DHT22;9786;42.714;23.272;2024-03-23T15:29:31;18.10;28.70
11045;DHT22;9786;42.714;23.272;2024-03-23T15:32:02;18.10;28.50
11045;DHT22;9786;42.714;23.272;2024-03-23T15:34:30;18.00;28.50
11045;DHT22;9786;42.714;23.272;2024-03-23T15:36:58;18.10;28.80
11045;DHT22;9786;42.714;23.272;2024-03-23T15:39:29;18.10;28.20
11045;DHT22;9786;42.714;23.272;2024-03-23T15:41:57;18.00;28.40
11045;DHT22;9786;42.714;23.272;2024-03-23T15:44:28;18.00;28.60
11045;DHT22;9786;42.714;23.272;2024-03-23T15:47:02;18.00;28.90
11045;DHT22;9786;42.714;23.272;2024-03-23T15:49:29;17.80;29.00
11045;DHT22;9786;42.714;23.272;2024-03-23T15:51:57;17.80;29.20
11045;DHT22;9786;42.714;23.272;2024-03-23T15:54:26;17.80;29.00
11045;DHT22;9786;42.714;23.272;2024-03-23T15:56:54;17.70;29.00
11045;DHT22;9786;42.714;23.272;2024-03-23T15:59:23;17.60;29.20
11045;DHT22;9786;42.714;23.272;2024-03-23T16:01:53;17.60;29.20
11045;DHT22;9786;42.714;23.272;2024-03-23T16:04:22;17.60;29.40
11045;DHT22;9786;42.714;23.272;2024-03-23T16:06:51;17.50;29.80
11045;DHT22;9786;42.714;23.272;2024-03-23T16:09:18;17.50;29.50
11045;DHT22;9786;42.714;23.272;2024-03-23T16:11:47;17.40;29.70
11045;DHT22;9786;42.714;23.272;2024-03-23T16:14:16;17.40;29.70
11045;DHT22;9786;42.714;23.272;2024-03-23T16:16:56;17.40;29.60
11045;DHT22;9786;42.714;23.272;2024-03-23T16:19:22;17.20;29.70
11045;DHT22;9786;42.714;23.272;2024-03-23T16:21:52;17.30;30.00
11045;DHT22;9786;42.714;23.272;2024-03-23T16:24:21;17.10;30.10
11045;DHT22;9786;42.714;23.272;2024-03-23T16:26:52;17.20;30.10
11045;DHT22;9786;42.714;23.272;2024-03-23T16:29:20;17.10;30.10
11045;DHT22;9786;42.714;23.272;2024-03-23T16:31:50;17.00;30.20
11045;DHT22;9786;42.714;23.272;2024-03-23T16:34:19;16.90;30.30
11045;DHT22;9786;42.714;23.272;2024-03-23T16:36:56;16.80;30.60
11045;DHT22;9786;42.714;23.272;2024-03-23T16:39:23;16.80;30.70
11045;DHT22;9786;42.714;23.272;2024-03-23T16:41:53;16.70;30.80
11045;DHT22;9786;42.714;23.272;2024-03-23T16:44:45;16.60;31.60
11045;DHT22;9786;42.714;23.272;2024-03-23T16:47:39;16.40;31.60
11045;DHT22;9786;42.714;23.272;2024-03-23T16:50:09;16.40;31.90